sensor_id;sensor_type;location;lat;lon;timestamp;P1;durP1;ratioP1;P2;durP2;ratioP2
75456;SDS011;64036;48.266;14.192;2023-02-11T00:01:47;24.50;;;12.10;;
75456;SDS011;64036;48.266;14.192;2023-02-11T00:05:23;19.80;;;9.50;;
75456;SDS011;64036;48.266;14.192;2023-02-11T00:08:43;21.30;;;10.60;;
75456;SDS011;64036;48.266;14.192;2023-02-11T00:22:31;26.50;;;12.50;;
75456;SDS011;64036;48.266;14.192;2023-02-11T00:25:30;27.50;;;14.00;;
75456;SDS011;64036;48.266;14.192;2023-02-11T00:28:47;23.00;;;12.20;;
75456;SDS011;64036;48.266;14.192;2023-02-11T00:37:55;26.00;;;11.00;;
75456;SDS011;64036;48.266;14.192;2023-02-11T00:41:05;25.20;;;13.10;;
75456;SDS011;64036;48.266;14.192;2023-02-11T00:53:56;26.60;;;12.00;;
75456;SDS011;64036;48.266;14.192;2023-02-11T01:00:48;23.80;;;11.60;;
75456;SDS011;64036;48.266;14.192;2023-02-11T01:03:25;27.60;;;13.80;;
75456;SDS011;64036;48.266;14.192;2023-02-11T01:09:13;33.60;;;14.50;;
75456;SDS011;64036;48.266;14.192;2023-02-11T01:11:57;31.50;;;16.00;;
75456;SDS011;64036;48.266;14.192;2023-02-11T01:21:49;29.90;;;14.70;;
75456;SDS011;64036;48.266;14.192;2023-02-11T01:31:22;21.80;;;11.40;;
75456;SDS011;64036;48.266;14.192;2023-02-11T01:34:14;27.90;;;13.40;;
75456;SDS011;64036;48.266;14.192;2023-02-11T01:47:55;25.70;;;12.70;;
75456;SDS011;64036;48.266;14.192;2023-02-11T01:50:51;27.20;;;12.70;;
75456;SDS011;64036;48.266;14.192;2023-02-11T01:53:24;24.50;;;12.30;;
75456;SDS011;64036;48.266;14.192;2023-02-11T01:56:34;25.90;;;12.60;;
75456;SDS011;64036;48.266;14.192;2023-02-11T02:00:07;31.40;;;14.70;;
75456;SDS011;64036;48.266;14.192;2023-02-11T02:03:19;27.40;;;14.20;;
75456;SDS011;64036;48.266;14.192;2023-02-11T02:27:47;31.90;;;14.40;;
75456;SDS011;64036;48.266;14.192;2023-02-11T02:45:06;32.70;;;15.50;;
75456;SDS011;64036;48.266;14.192;2023-02-11T02:59:13;28.40;;;13.30;;
75456;SDS011;64036;48.266;14.192;2023-02-11T03:10:22;28.20;;;14.00;;
75456;SDS011;64036;48.266;14.192;2023-02-11T03:17:34;28.10;;;13.40;;
75456;SDS011;64036;48.266;14.192;2023-02-11T03:20:22;26.40;;;13.20;;
75456;SDS011;64036;48.266;14.192;2023-02-11T03:30:05;27.20;;;12.90;;
75456;SDS011;64036;48.266;14.192;2023-02-11T03:36:45;30.70;;;13.50;;
75456;SDS011;64036;48.266;14.192;2023-02-11T03:39:45;34.40;;;17.00;;
75456;SDS011;64036;48.266;14.192;2023-02-11T03:43:24;27.80;;;14.50;;
75456;SDS011;64036;48.266;14.192;2023-02-11T03:46:07;27.80;;;13.60;;
75456;SDS011;64036;48.266;14.192;2023-02-11T03:49:03;25.00;;;12.00;;
75456;SDS011;64036;48.266;14.192;2023-02-11T04:00:47;29.60;;;16.20;;
75456;SDS011;64036;48.266;14.192;2023-02-11T04:03:57;30.00;;;13.40;;
75456;SDS011;64036;48.266;14.192;2023-02-11T04:12:58;31.00;;;15.30;;
75456;SDS011;64036;48.266;14.192;2023-02-11T04:18:40;26.60;;;13.40;;
75456;SDS011;64036;48.266;14.192;2023-02-11T04:21:13;28.10;;;13.80;;
75456;SDS011;64036;48.266;14.192;2023-02-11T04:24:05;32.20;;;14.80;;
75456;SDS011;64036;48.266;14.192;2023-02-11T04:26:57;32.10;;;15.60;;
75456;SDS011;64036;48.266;14.192;2023-02-11T04:29:26;27.80;;;12.90;;
75456;SDS011;64036;48.266;14.192;2023-02-11T04:35:24;32.90;;;15.70;;
75456;SDS011;64036;48.266;14.192;2023-02-11T04:38:53;35.10;;;16.20;;
75456;SDS011;64036;48.266;14.192;2023-02-11T04:41:47;29.80;;;16.00;;
75456;SDS011;64036;48.266;14.192;2023-02-11T04:48:15;31.30;;;15.00;;
75456;SDS011;64036;48.266;14.192;2023-02-11T05:04:42;26.60;;;13.00;;
75456;SDS011;64036;48.266;14.192;2023-02-11T05:07:21;20.90;;;11.00;;
75456;SDS011;64036;48.266;14.192;2023-02-11T05:10:13;25.40;;;12.70;;
75456;SDS011;64036;48.266;14.192;2023-02-11T05:12:44;30.70;;;15.70;;
75456;SDS011;64036;48.266;14.192;2023-02-11T05:16:12;30.40;;;16.10;;
75456;SDS011;64036;48.266;14.192;2023-02-11T05:19:00;38.40;;;18.10;;
75456;SDS011;64036;48.266;14.192;2023-02-11T05:21:38;26.40;;;12.40;;
75456;SDS011;64036;48.266;14.192;2023-02-11T05:41:25;35.00;;;17.20;;
75456;SDS011;64036;48.266;14.192;2023-02-11T05:44:05;32.60;;;16.50;;
75456;SDS011;64036;48.266;14.192;2023-02-11T05:46:42;28.10;;;12.90;;
75456;SDS011;64036;48.266;14.192;2023-02-11T05:49:25;34.50;;;17.10;;
75456;SDS011;64036;48.266;14.192;2023-02-11T05:51:58;31.90;;;15.90;;
75456;SDS011;64036;48.266;14.192;2023-02-11T05:54:24;33.70;;;16.40;;
75456;SDS011;64036;48.266;14.192;2023-02-11T05:59:59;27.70;;;14.70;;
75456;SDS011;64036;48.266;14.192;2023-02-11T06:06:39;26.10;;;13.60;;
75456;SDS011;64036;48.266;14.192;2023-02-11T06:09:33;32.40;;;15.80;;
75456;SDS011;64036;48.266;14.192;2023-02-11T06:12:30;29.30;;;15.00;;
75456;SDS011;64036;48.266;14.192;2023-02-11T06:16:08;24.80;;;13.10;;
75456;SDS011;64036;48.266;14.192;2023-02-11T06:18:55;31.40;;;15.10;;
75456;SDS011;64036;48.266;14.192;2023-02-11T06:21:44;31.50;;;16.60;;
75456;SDS011;64036;48.266;14.192;2023-02-11T06:38:06;31.60;;;15.00;;
75456;SDS011;64036;48.266;14.192;2023-02-11T06:41:03;26.60;;;13.40;;
75456;SDS011;64036;48.266;14.192;2023-02-11T06:43:48;27.70;;;12.00;;
75456;SDS011;64036;48.266;14.192;2023-02-11T06:49:05;24.10;;;11.00;;
75456;SDS011;64036;48.266;14.192;2023-02-11T06:51:42;28.50;;;15.20;;
75456;SDS011;64036;48.266;14.192;2023-02-11T06:54:20;30.20;;;14.90;;
75456;SDS011;64036;48.266;14.192;2023-02-11T06:56:55;32.20;;;15.40;;
75456;SDS011;64036;48.266;14.192;2023-02-11T06:59:33;25.60;;;12.80;;
75456;SDS011;64036;48.266;14.192;2023-02-11T07:01:59;29.60;;;13.90;;
75456;SDS011;64036;48.266;14.192;2023-02-11T07:07:12;27.30;;;13.90;;
75456;SDS011;64036;48.266;14.192;2023-02-11T07:09:58;22.00;;;12.20;;
75456;SDS011;64036;48.266;14.192;2023-02-11T07:12:24;25.70;;;12.90;;
75456;SDS011;64036;48.266;14.192;2023-02-11T07:15:14;28.20;;;14.40;;
75456;SDS011;64036;48.266;14.192;2023-02-11T07:18:06;26.40;;;13.50;;
75456;SDS011;64036;48.266;14.192;2023-02-11T07:20:35;25.50;;;14.10;;
75456;SDS011;64036;48.266;14.192;2023-02-11T07:23:03;28.40;;;13.90;;
75456;SDS011;64036;48.266;14.192;2023-02-11T07:25:41;22.90;;;12.70;;
75456;SDS011;64036;48.266;14.192;2023-02-11T07:28:33;29.70;;;13.20;;
75456;SDS011;64036;48.266;14.192;2023-02-11T07:35:02;25.40;;;12.70;;
75456;SDS011;64036;48.266;14.192;2023-02-11T07:37:51;29.60;;;13.70;;
75456;SDS011;64036;48.266;14.192;2023-02-11T07:40:40;24.50;;;13.50;;
75456;SDS011;64036;48.266;14.192;2023-02-11T07:43:39;26.70;;;13.90;;
75456;SDS011;64036;48.266;14.192;2023-02-11T07:46:21;27.30;;;14.00;;
75456;SDS011;64036;48.266;14.192;2023-02-11T07:55:46;25.40;;;14.00;;
75456;SDS011;64036;48.266;14.192;2023-02-11T07:58:44;24.90;;;13.30;;
75456;SDS011;64036;48.266;14.192;2023-02-11T08:01:39;25.20;;;14.20;;
75456;SDS011;64036;48.266;14.192;2023-02-11T08:04:31;29.10;;;15.60;;
75456;SDS011;64036;48.266;14.192;2023-02-11T08:10:29;32.70;;;15.70;;
75456;SDS011;64036;48.266;14.192;2023-02-11T08:13:02;29.90;;;14.40;;
75456;SDS011;64036;48.266;14.192;2023-02-11T08:15:35;27.40;;;14.90;;
75456;SDS011;64036;48.266;14.192;2023-02-11T08:18:01;27.20;;;15.20;;
75456;SDS011;64036;48.266;14.192;2023-02-11T08:20:32;26.90;;;14.90;;
75456;SDS011;64036;48.266;14.192;2023-02-11T08:23:09;25.30;;;13.50;;
75456;SDS011;64036;48.266;14.192;2023-02-11T08:25:46;29.90;;;15.20;;
75456;SDS011;64036;48.266;14.192;2023-02-11T08:28:41;23.60;;;13.00;;
75456;SDS011;64036;48.266;14.192;2023-02-11T08:31:55;26.70;;;15.20;;
75456;SDS011;64036;48.266;14.192;2023-02-11T08:34:00;35.30;;;16.30;;
75456;SDS011;64036;48.266;14.192;2023-02-11T08:36:47;21.80;;;12.10;;
75456;SDS011;64036;48.266;14.192;2023-02-11T08:39:19;25.20;;;13.70;;
75456;SDS011;64036;48.266;14.192;2023-02-11T08:41:53;27.90;;;14.50;;
75456;SDS011;64036;48.266;14.192;2023-02-11T08:47:01;19.10;;;11.20;;
75456;SDS011;64036;48.266;14.192;2023-02-11T08:55:16;22.20;;;11.40;;
75456;SDS011;64036;48.266;14.192;2023-02-11T08:57:41;19.20;;;11.20;;
75456;SDS011;64036;48.266;14.192;2023-02-11T09:00:16;23.40;;;11.40;;
75456;SDS011;64036;48.266;14.192;2023-02-11T09:02:51;21.00;;;11.50;;
75456;SDS011;64036;48.266;14.192;2023-02-11T09:05:17;20.70;;;11.60;;
75456;SDS011;64036;48.266;14.192;2023-02-11T09:07:45;22.20;;;11.80;;
75456;SDS011;64036;48.266;14.192;2023-02-11T09:10:11;19.10;;;11.00;;
75456;SDS011;64036;48.266;14.192;2023-02-11T09:12:47;16.30;;;8.30;;
75456;SDS011;64036;48.266;14.192;2023-02-11T09:15:12;19.50;;;10.60;;
75456;SDS011;64036;48.266;14.192;2023-02-11T09:17:38;18.40;;;9.90;;
75456;SDS011;64036;48.266;14.192;2023-02-11T09:20:07;20.20;;;10.80;;
75456;SDS011;64036;48.266;14.192;2023-02-11T09:22:36;19.00;;;9.50;;
75456;SDS011;64036;48.266;14.192;2023-02-11T09:25:04;18.50;;;10.40;;
75456;SDS011;64036;48.266;14.192;2023-02-11T09:27:36;20.50;;;11.00;;
75456;SDS011;64036;48.266;14.192;2023-02-11T09:30:04;19.10;;;9.70;;
75456;SDS011;64036;48.266;14.192;2023-02-11T09:32:30;17.60;;;9.90;;
75456;SDS011;64036;48.266;14.192;2023-02-11T09:34:56;16.80;;;9.00;;
75456;SDS011;64036;48.266;14.192;2023-02-11T09:37:22;19.40;;;11.20;;
75456;SDS011;64036;48.266;14.192;2023-02-11T09:39:47;17.80;;;10.30;;
75456;SDS011;64036;48.266;14.192;2023-02-11T09:45:27;15.20;;;9.10;;
75456;SDS011;64036;48.266;14.192;2023-02-11T09:47:59;20.50;;;10.20;;
75456;SDS011;64036;48.266;14.192;2023-02-11T09:50:46;19.80;;;10.40;;
75456;SDS011;64036;48.266;14.192;2023-02-11T09:53:43;18.40;;;9.70;;
75456;SDS011;64036;48.266;14.192;2023-02-11T09:56:23;20.30;;;10.10;;
75456;SDS011;64036;48.266;14.192;2023-02-11T09:58:49;19.10;;;10.30;;
75456;SDS011;64036;48.266;14.192;2023-02-11T10:01:39;17.50;;;9.50;;
75456;SDS011;64036;48.266;14.192;2023-02-11T10:08:01;16.90;;;9.40;;
75456;SDS011;64036;48.266;14.192;2023-02-11T10:10:41;18.50;;;10.00;;
75456;SDS011;64036;48.266;14.192;2023-02-11T10:15:57;18.10;;;10.20;;
75456;SDS011;64036;48.266;14.192;2023-02-11T10:22:04;16.80;;;9.30;;
75456;SDS011;64036;48.266;14.192;2023-02-11T10:24:41;21.50;;;10.00;;
75456;SDS011;64036;48.266;14.192;2023-02-11T10:27:23;17.00;;;9.50;;
75456;SDS011;64036;48.266;14.192;2023-02-11T10:30:41;18.80;;;10.60;;
75456;SDS011;64036;48.266;14.192;2023-02-11T10:33:30;19.30;;;10.50;;
75456;SDS011;64036;48.266;14.192;2023-02-11T10:36:01;17.60;;;9.50;;
75456;SDS011;64036;48.266;14.192;2023-02-11T10:38:28;18.70;;;10.50;;
75456;SDS011;64036;48.266;14.192;2023-02-11T10:41:03;18.70;;;10.00;;
75456;SDS011;64036;48.266;14.192;2023-02-11T10:43:31;21.50;;;10.20;;
75456;SDS011;64036;48.266;14.192;2023-02-11T10:45:58;17.10;;;10.10;;
75456;SDS011;64036;48.266;14.192;2023-02-11T10:48:50;17.80;;;9.90;;
75456;SDS011;64036;48.266;14.192;2023-02-11T10:51:30;17.70;;;9.90;;
75456;SDS011;64036;48.266;14.192;2023-02-11T10:56:36;16.50;;;9.90;;
75456;SDS011;64036;48.266;14.192;2023-02-11T10:59:32;18.10;;;9.90;;
75456;SDS011;64036;48.266;14.192;2023-02-11T11:02:23;15.90;;;9.10;;
75456;SDS011;64036;48.266;14.192;2023-02-11T11:04:58;18.00;;;9.70;;
75456;SDS011;64036;48.266;14.192;2023-02-11T11:07:28;18.20;;;10.00;;
75456;SDS011;64036;48.266;14.192;2023-02-11T11:13:00;16.90;;;9.90;;
75456;SDS011;64036;48.266;14.192;2023-02-11T11:15:30;16.00;;;9.00;;
75456;SDS011;64036;48.266;14.192;2023-02-11T11:18:16;16.60;;;9.00;;
75456;SDS011;64036;48.266;14.192;2023-02-11T11:20:58;13.50;;;8.10;;
75456;SDS011;64036;48.266;14.192;2023-02-11T11:23:27;18.10;;;9.60;;
75456;SDS011;64036;48.266;14.192;2023-02-11T11:26:09;15.10;;;8.80;;
75456;SDS011;64036;48.266;14.192;2023-02-11T11:28:40;15.30;;;8.70;;
75456;SDS011;64036;48.266;14.192;2023-02-11T11:31:47;17.20;;;9.10;;
75456;SDS011;64036;48.266;14.192;2023-02-11T11:34:33;14.00;;;7.80;;
75456;SDS011;64036;48.266;14.192;2023-02-11T11:37:25;17.20;;;8.80;;
75456;SDS011;64036;48.266;14.192;2023-02-11T11:39:57;16.60;;;9.10;;
75456;SDS011;64036;48.266;14.192;2023-02-11T11:42:31;18.20;;;10.10;;
75456;SDS011;64036;48.266;14.192;2023-02-11T11:48:22;18.90;;;9.20;;
75456;SDS011;64036;48.266;14.192;2023-02-11T11:51:12;17.40;;;9.20;;
75456;SDS011;64036;48.266;14.192;2023-02-11T11:53:44;15.00;;;8.70;;
75456;SDS011;64036;48.266;14.192;2023-02-11T11:56:16;15.00;;;8.70;;
75456;SDS011;64036;48.266;14.192;2023-02-11T11:58:44;18.50;;;9.30;;
75456;SDS011;64036;48.266;14.192;2023-02-11T12:01:18;16.80;;;9.50;;
75456;SDS011;64036;48.266;14.192;2023-02-11T12:10:33;16.90;;;8.30;;
75456;SDS011;64036;48.266;14.192;2023-02-11T12:16:27;16.50;;;9.60;;
75456;SDS011;64036;48.266;14.192;2023-02-11T12:25:08;20.10;;;9.50;;
75456;SDS011;64036;48.266;14.192;2023-02-11T12:28:00;17.20;;;9.80;;
75456;SDS011;64036;48.266;14.192;2023-02-11T12:40:43;17.50;;;9.10;;
75456;SDS011;64036;48.266;14.192;2023-02-11T12:43:22;18.50;;;10.10;;
75456;SDS011;64036;48.266;14.192;2023-02-11T12:46:08;20.10;;;10.80;;
75456;SDS011;64036;48.266;14.192;2023-02-11T12:48:38;18.70;;;9.50;;
75456;SDS011;64036;48.266;14.192;2023-02-11T13:00:02;18.70;;;9.80;;
75456;SDS011;64036;48.266;14.192;2023-02-11T13:05:21;17.50;;;10.20;;
75456;SDS011;64036;48.266;14.192;2023-02-11T13:07:50;16.70;;;9.10;;
75456;SDS011;64036;48.266;14.192;2023-02-11T13:10:26;17.70;;;9.00;;
75456;SDS011;64036;48.266;14.192;2023-02-11T13:12:59;18.60;;;10.90;;
75456;SDS011;64036;48.266;14.192;2023-02-11T13:15:58;19.50;;;10.10;;
75456;SDS011;64036;48.266;14.192;2023-02-11T13:18:59;20.40;;;11.10;;
75456;SDS011;64036;48.266;14.192;2023-02-11T13:25:14;17.20;;;9.70;;
75456;SDS011;64036;48.266;14.192;2023-02-11T13:28:50;19.40;;;11.20;;
75456;SDS011;64036;48.266;14.192;2023-02-11T13:31:05;17.80;;;10.10;;
75456;SDS011;64036;48.266;14.192;2023-02-11T13:33:40;21.60;;;11.40;;
75456;SDS011;64036;48.266;14.192;2023-02-11T13:39:25;19.60;;;10.40;;
75456;SDS011;64036;48.266;14.192;2023-02-11T13:42:14;20.30;;;10.80;;
75456;SDS011;64036;48.266;14.192;2023-02-11T13:44:44;17.70;;;10.90;;
75456;SDS011;64036;48.266;14.192;2023-02-11T13:47:33;19.90;;;11.00;;
75456;SDS011;64036;48.266;14.192;2023-02-11T13:50:23;21.70;;;11.00;;
75456;SDS011;64036;48.266;14.192;2023-02-11T13:52:57;19.80;;;10.70;;
75456;SDS011;64036;48.266;14.192;2023-02-11T13:55:25;19.00;;;11.30;;
75456;SDS011;64036;48.266;14.192;2023-02-11T14:15:17;18.80;;;9.70;;
75456;SDS011;64036;48.266;14.192;2023-02-11T14:17:45;21.00;;;11.70;;
75456;SDS011;64036;48.266;14.192;2023-02-11T14:20:52;19.60;;;11.00;;
75456;SDS011;64036;48.266;14.192;2023-02-11T14:23:41;21.20;;;11.30;;
75456;SDS011;64036;48.266;14.192;2023-02-11T14:26:34;20.10;;;11.30;;
75456;SDS011;64036;48.266;14.192;2023-02-11T14:29:18;20.50;;;11.10;;
75456;SDS011;64036;48.266;14.192;2023-02-11T14:42:53;21.30;;;11.50;;
75456;SDS011;64036;48.266;14.192;2023-02-11T14:45:29;23.20;;;11.70;;
75456;SDS011;64036;48.266;14.192;2023-02-11T14:48:19;22.20;;;12.40;;
75456;SDS011;64036;48.266;14.192;2023-02-11T14:51:15;18.70;;;10.30;;
75456;SDS011;64036;48.266;14.192;2023-02-11T14:53:53;19.90;;;10.50;;
75456;SDS011;64036;48.266;14.192;2023-02-11T14:56:27;23.20;;;11.60;;
75456;SDS011;64036;48.266;14.192;2023-02-11T14:58:59;19.10;;;10.70;;
75456;SDS011;64036;48.266;14.192;2023-02-11T15:01:38;23.60;;;12.30;;
75456;SDS011;64036;48.266;14.192;2023-02-11T15:04:26;20.80;;;10.70;;
75456;SDS011;64036;48.266;14.192;2023-02-11T15:06:54;21.40;;;12.20;;
75456;SDS011;64036;48.266;14.192;2023-02-11T15:09:52;24.80;;;12.00;;
75456;SDS011;64036;48.266;14.192;2023-02-11T15:12:22;19.10;;;11.10;;
75456;SDS011;64036;48.266;14.192;2023-02-11T15:14:54;20.00;;;11.10;;
75456;SDS011;64036;48.266;14.192;2023-02-11T15:17:23;20.00;;;10.50;;
75456;SDS011;64036;48.266;14.192;2023-02-11T15:20:02;22.90;;;11.90;;
75456;SDS011;64036;48.266;14.192;2023-02-11T15:22:33;22.80;;;12.80;;
75456;SDS011;64036;48.266;14.192;2023-02-11T15:25:09;23.60;;;12.70;;
75456;SDS011;64036;48.266;14.192;2023-02-11T15:27:54;19.90;;;10.60;;
75456;SDS011;64036;48.266;14.192;2023-02-11T15:30:31;22.10;;;11.30;;
75456;SDS011;64036;48.266;14.192;2023-02-11T15:33:02;21.00;;;10.90;;
75456;SDS011;64036;48.266;14.192;2023-02-11T15:35:49;20.20;;;10.80;;
75456;SDS011;64036;48.266;14.192;2023-02-11T15:38:25;19.50;;;10.60;;
75456;SDS011;64036;48.266;14.192;2023-02-11T15:41:01;18.70;;;11.10;;
75456;SDS011;64036;48.266;14.192;2023-02-11T15:43:48;20.30;;;10.80;;
75456;SDS011;64036;48.266;14.192;2023-02-11T15:46:23;20.90;;;11.20;;
75456;SDS011;64036;48.266;14.192;2023-02-11T15:48:57;20.20;;;12.10;;
75456;SDS011;64036;48.266;14.192;2023-02-11T15:51:28;18.90;;;11.40;;
75456;SDS011;64036;48.266;14.192;2023-02-11T15:54:18;20.10;;;11.00;;
75456;SDS011;64036;48.266;14.192;2023-02-11T15:56:51;20.80;;;11.60;;
75456;SDS011;64036;48.266;14.192;2023-02-11T15:59:21;21.00;;;11.80;;
75456;SDS011;64036;48.266;14.192;2023-02-11T16:02:12;20.30;;;11.30;;
75456;SDS011;64036;48.266;14.192;2023-02-11T16:04:50;22.40;;;11.90;;
75456;SDS011;64036;48.266;14.192;2023-02-11T16:07:56;20.60;;;11.10;;
75456;SDS011;64036;48.266;14.192;2023-02-11T16:10:28;20.90;;;11.20;;
75456;SDS011;64036;48.266;14.192;2023-02-11T16:13:17;22.00;;;12.50;;
75456;SDS011;64036;48.266;14.192;2023-02-11T16:16:16;21.80;;;11.80;;
75456;SDS011;64036;48.266;14.192;2023-02-11T16:18:48;21.70;;;11.90;;
75456;SDS011;64036;48.266;14.192;2023-02-11T16:21:19;22.00;;;12.70;;
75456;SDS011;64036;48.266;14.192;2023-02-11T16:24:02;26.60;;;13.20;;
75456;SDS011;64036;48.266;14.192;2023-02-11T16:26:40;23.20;;;12.00;;
75456;SDS011;64036;48.266;14.192;2023-02-11T16:29:30;24.10;;;12.00;;
75456;SDS011;64036;48.266;14.192;2023-02-11T16:32:18;23.60;;;12.80;;
75456;SDS011;64036;48.266;14.192;2023-02-11T16:34:49;24.50;;;13.50;;
75456;SDS011;64036;48.266;14.192;2023-02-11T16:37:23;22.80;;;12.90;;
75456;SDS011;64036;48.266;14.192;2023-02-11T16:39:53;22.70;;;12.00;;
75456;SDS011;64036;48.266;14.192;2023-02-11T16:42:24;22.00;;;12.20;;
75456;SDS011;64036;48.266;14.192;2023-02-11T16:44:50;22.40;;;12.00;;
75456;SDS011;64036;48.266;14.192;2023-02-11T16:47:22;22.70;;;12.40;;
75456;SDS011;64036;48.266;14.192;2023-02-11T16:49:49;22.50;;;12.50;;
75456;SDS011;64036;48.266;14.192;2023-02-11T16:52:15;21.80;;;12.90;;
75456;SDS011;64036;48.266;14.192;2023-02-11T16:54:42;23.80;;;12.30;;
75456;SDS011;64036;48.266;14.192;2023-02-11T16:57:23;24.20;;;13.10;;
75456;SDS011;64036;48.266;14.192;2023-02-11T16:59:54;23.20;;;11.90;;
75456;SDS011;64036;48.266;14.192;2023-02-11T17:02:28;26.20;;;14.40;;
75456;SDS011;64036;48.266;14.192;2023-02-11T17:04:58;24.60;;;12.90;;
75456;SDS011;64036;48.266;14.192;2023-02-11T17:07:29;24.20;;;13.30;;
75456;SDS011;64036;48.266;14.192;2023-02-11T17:10:11;23.70;;;13.30;;
75456;SDS011;64036;48.266;14.192;2023-02-11T17:12:46;24.70;;;13.20;;
75456;SDS011;64036;48.266;14.192;2023-02-11T17:15:21;23.80;;;13.90;;
75456;SDS011;64036;48.266;14.192;2023-02-11T17:17:50;25.40;;;13.20;;
75456;SDS011;64036;48.266;14.192;2023-02-11T17:20:26;25.90;;;13.40;;
75456;SDS011;64036;48.266;14.192;2023-02-11T17:23:00;31.70;;;15.40;;
75456;SDS011;64036;48.266;14.192;2023-02-11T17:25:33;27.10;;;14.70;;
75456;SDS011;64036;48.266;14.192;2023-02-11T17:28:08;32.40;;;15.40;;
75456;SDS011;64036;48.266;14.192;2023-02-11T17:30:39;32.00;;;15.30;;
75456;SDS011;64036;48.266;14.192;2023-02-11T17:33:16;28.30;;;14.90;;
75456;SDS011;64036;48.266;14.192;2023-02-11T17:35:47;26.50;;;14.30;;
75456;SDS011;64036;48.266;14.192;2023-02-11T17:38:13;22.90;;;13.70;;
75456;SDS011;64036;48.266;14.192;2023-02-11T17:40:39;29.00;;;14.50;;
75456;SDS011;64036;48.266;14.192;2023-02-11T17:43:14;25.90;;;14.30;;
75456;SDS011;64036;48.266;14.192;2023-02-11T17:45:50;25.90;;;14.80;;
75456;SDS011;64036;48.266;14.192;2023-02-11T17:48:48;27.20;;;13.30;;
75456;SDS011;64036;48.266;14.192;2023-02-11T17:51:30;26.20;;;14.30;;
75456;SDS011;64036;48.266;14.192;2023-02-11T17:54:12;24.90;;;13.40;;
75456;SDS011;64036;48.266;14.192;2023-02-11T17:56:40;30.20;;;15.10;;
75456;SDS011;64036;48.266;14.192;2023-02-11T17:59:16;28.60;;;14.50;;
75456;SDS011;64036;48.266;14.192;2023-02-11T18:01:42;28.00;;;15.60;;
75456;SDS011;64036;48.266;14.192;2023-02-11T18:04:16;27.40;;;16.70;;
75456;SDS011;64036;48.266;14.192;2023-02-11T18:06:55;27.30;;;15.30;;
75456;SDS011;64036;48.266;14.192;2023-02-11T18:09:30;31.00;;;16.60;;
75456;SDS011;64036;48.266;14.192;2023-02-11T18:12:11;31.20;;;16.30;;
75456;SDS011;64036;48.266;14.192;2023-02-11T18:14:43;26.00;;;15.10;;
75456;SDS011;64036;48.266;14.192;2023-02-11T18:17:12;27.40;;;15.40;;
75456;SDS011;64036;48.266;14.192;2023-02-11T18:19:40;29.10;;;16.00;;
75456;SDS011;64036;48.266;14.192;2023-02-11T18:22:18;29.90;;;15.60;;
75456;SDS011;64036;48.266;14.192;2023-02-11T18:24:52;31.40;;;16.60;;
75456;SDS011;64036;48.266;14.192;2023-02-11T18:27:22;28.80;;;16.60;;
75456;SDS011;64036;48.266;14.192;2023-02-11T18:29:50;30.10;;;14.90;;
75456;SDS011;64036;48.266;14.192;2023-02-11T18:32:16;32.20;;;16.70;;
75456;SDS011;64036;48.266;14.192;2023-02-11T18:34:44;31.30;;;16.50;;
75456;SDS011;64036;48.266;14.192;2023-02-11T18:37:15;30.10;;;15.90;;
75456;SDS011;64036;48.266;14.192;2023-02-11T18:39:42;28.80;;;15.50;;
75456;SDS011;64036;48.266;14.192;2023-02-11T18:42:10;29.20;;;15.70;;
75456;SDS011;64036;48.266;14.192;2023-02-11T18:44:36;30.20;;;15.90;;
75456;SDS011;64036;48.266;14.192;2023-02-11T18:47:07;30.20;;;16.10;;
75456;SDS011;64036;48.266;14.192;2023-02-11T18:49:33;26.60;;;15.10;;
75456;SDS011;64036;48.266;14.192;2023-02-11T18:52:02;28.70;;;14.60;;
75456;SDS011;64036;48.266;14.192;2023-02-11T18:54:28;27.90;;;16.50;;
75456;SDS011;64036;48.266;14.192;2023-02-11T18:56:57;31.20;;;17.40;;
75456;SDS011;64036;48.266;14.192;2023-02-11T18:59:25;29.00;;;15.40;;
75456;SDS011;64036;48.266;14.192;2023-02-11T19:01:51;25.90;;;13.70;;
75456;SDS011;64036;48.266;14.192;2023-02-11T19:04:19;25.40;;;14.10;;
75456;SDS011;64036;48.266;14.192;2023-02-11T19:06:53;29.60;;;16.20;;
75456;SDS011;64036;48.266;14.192;2023-02-11T19:09:19;27.40;;;15.40;;
75456;SDS011;64036;48.266;14.192;2023-02-11T19:11:45;26.40;;;14.30;;
75456;SDS011;64036;48.266;14.192;2023-02-11T19:14:29;33.60;;;16.60;;
75456;SDS011;64036;48.266;14.192;2023-02-11T19:17:03;26.10;;;13.80;;
75456;SDS011;64036;48.266;14.192;2023-02-11T19:19:33;27.20;;;14.50;;
75456;SDS011;64036;48.266;14.192;2023-02-11T19:22:02;30.60;;;17.50;;
75456;SDS011;64036;48.266;14.192;2023-02-11T19:24:31;31.50;;;15.50;;
75456;SDS011;64036;48.266;14.192;2023-02-11T19:26:59;25.10;;;14.50;;
75456;SDS011;64036;48.266;14.192;2023-02-11T19:29:31;29.70;;;15.90;;
75456;SDS011;64036;48.266;14.192;2023-02-11T19:32:00;27.10;;;15.40;;
75456;SDS011;64036;48.266;14.192;2023-02-11T19:34:27;27.30;;;15.80;;
75456;SDS011;64036;48.266;14.192;2023-02-11T19:36:53;28.70;;;16.00;;
75456;SDS011;64036;48.266;14.192;2023-02-11T19:39:19;28.20;;;15.60;;
75456;SDS011;64036;48.266;14.192;2023-02-11T19:41:48;28.20;;;15.20;;
75456;SDS011;64036;48.266;14.192;2023-02-11T19:44:14;26.30;;;14.60;;
75456;SDS011;64036;48.266;14.192;2023-02-11T19:46:40;28.90;;;15.60;;
75456;SDS011;64036;48.266;14.192;2023-02-11T19:49:06;28.70;;;15.90;;
75456;SDS011;64036;48.266;14.192;2023-02-11T19:51:32;26.20;;;14.20;;
75456;SDS011;64036;48.266;14.192;2023-02-11T19:54:06;27.90;;;15.30;;
75456;SDS011;64036;48.266;14.192;2023-02-11T19:56:35;28.60;;;15.90;;
75456;SDS011;64036;48.266;14.192;2023-02-11T19:59:03;28.70;;;15.30;;
75456;SDS011;64036;48.266;14.192;2023-02-11T20:01:36;34.10;;;16.30;;
75456;SDS011;64036;48.266;14.192;2023-02-11T20:04:02;31.00;;;16.10;;
75456;SDS011;64036;48.266;14.192;2023-02-11T20:06:32;27.40;;;14.50;;
75456;SDS011;64036;48.266;14.192;2023-02-11T20:09:02;25.50;;;14.60;;
75456;SDS011;64036;48.266;14.192;2023-02-11T20:11:36;30.50;;;14.70;;
75456;SDS011;64036;48.266;14.192;2023-02-11T20:14:05;28.10;;;14.90;;
75456;SDS011;64036;48.266;14.192;2023-02-11T20:16:33;26.60;;;15.40;;
75456;SDS011;64036;48.266;14.192;2023-02-11T20:18:59;32.10;;;16.20;;
75456;SDS011;64036;48.266;14.192;2023-02-11T20:21:30;26.10;;;15.00;;
75456;SDS011;64036;48.266;14.192;2023-02-11T20:23:57;24.70;;;13.80;;
75456;SDS011;64036;48.266;14.192;2023-02-11T20:26:26;29.30;;;16.10;;
75456;SDS011;64036;48.266;14.192;2023-02-11T20:28:54;24.20;;;14.10;;
75456;SDS011;64036;48.266;14.192;2023-02-11T20:31:35;29.10;;;15.70;;
75456;SDS011;64036;48.266;14.192;2023-02-11T20:34:01;28.30;;;15.70;;
75456;SDS011;64036;48.266;14.192;2023-02-11T20:36:29;28.80;;;16.80;;
75456;SDS011;64036;48.266;14.192;2023-02-11T20:39:01;29.50;;;14.80;;
75456;SDS011;64036;48.266;14.192;2023-02-11T20:41:34;28.80;;;15.20;;
75456;SDS011;64036;48.266;14.192;2023-02-11T20:44:13;27.60;;;15.30;;
75456;SDS011;64036;48.266;14.192;2023-02-11T20:46:41;25.50;;;14.20;;
75456;SDS011;64036;48.266;14.192;2023-02-11T20:49:11;29.10;;;16.20;;